Sao Jeronimo da Serra, Brazil
Current Conditions -  °F | °C
As of 3:00 AM on Friday 28 Nov 2014 (Local Time) from SBLO Reporting Station
Broken Clouds Broken Clouds  
Wind Chill: 73°   Ceiling: 2800
Heat Index: 73°   Visibility: 6mi
Dew Point: 72°   Wind: 9mph
Humidity: 94%   Direction: 90°E
Pressure: 29.94"   Gusts: NA
Location:  23.73°S, 50.74°W
Report Text: SBLO 280500Z 09008KT 9999 BKN028 23/22 Q1014
Loading
Personal Weather Stations






























Interactive Weather Map New forecast layout! Learn more

10-Day Weather Forecast

Advertisements
Track Severe Weather on mobile